createdAt,value
2018-02-16T00:00:40.856Z,187.52
2018-02-16T00:01:45.057Z,211.87
2018-02-16T00:02:49.247Z,192.48
2018-02-16T00:03:53.465Z,193.80
2018-02-16T00:04:57.683Z,169.87
2018-02-16T00:06:02.186Z,166.67
2018-02-16T00:07:06.575Z,153.30
2018-02-16T00:08:11.595Z,184.60
2018-02-16T00:09:16.625Z,157.07
2018-02-16T00:10:21.584Z,182.25
2018-02-16T00:11:25.804Z,195.77
2018-02-16T00:12:30.007Z,196.23
2018-02-16T00:13:34.632Z,176.18
2018-02-16T00:14:39.050Z,179.95
2018-02-16T00:15:43.321Z,149.27
2018-02-16T00:16:47.534Z,205.40
2018-02-16T00:17:52.492Z,160.90
2018-02-16T00:18:56.690Z,173.23
2018-02-16T00:20:01.672Z,194.32
2018-02-16T00:21:06.909Z,169.65
2018-02-16T00:22:14.578Z,167.48
2018-02-16T00:23:18.870Z,158.87
2018-02-16T00:24:23.047Z,153.75
2018-02-16T00:25:27.250Z,157.83
2018-02-16T00:26:31.460Z,158.23
2018-02-16T00:27:37.425Z,170.50
2018-02-16T00:28:41.841Z,198.70
2018-02-16T00:29:46.860Z,174.43
2018-02-16T00:30:51.043Z,175.60
2018-02-16T00:31:55.232Z,183.48
2018-02-16T00:32:59.424Z,169.68
2018-02-16T00:34:05.164Z,167.37
2018-02-16T00:35:09.493Z,189.40
2018-02-16T00:36:14.085Z,168.87
2018-02-16T00:37:19.049Z,158.45
2018-02-16T00:38:23.250Z,155.05
2018-02-16T00:39:27.460Z,180.55
2018-02-16T00:40:31.709Z,196.32
2018-02-16T00:41:36.935Z,171.60
2018-02-16T00:42:41.237Z,149.07
2018-02-16T00:43:46.515Z,163.90
2018-02-16T00:44:50.688Z,167.67
2018-02-16T00:45:54.916Z,163.37
2018-02-16T00:46:59.137Z,158.60
2018-02-16T00:48:03.727Z,145.40
2018-02-16T00:49:08.291Z,133.10
2018-02-16T00:50:13.578Z,166.05
2018-02-16T00:51:17.771Z,161.67
2018-02-16T00:52:21.951Z,155.60
2018-02-16T00:53:26.203Z,152.23
2018-02-16T00:54:30.405Z,139.40
2018-02-16T00:55:35.009Z,133.30
2018-02-16T00:56:39.310Z,132.17
2018-02-16T00:57:43.591Z,144.37
2018-02-16T00:58:47.902Z,161.48
2018-02-16T00:59:52.087Z,149.38
2018-02-16T01:00:56.286Z,153.73
2018-02-16T01:02:00.475Z,146.33
2018-02-16T01:03:05.635Z,145.00
2018-02-16T01:04:10.676Z,137.57
2018-02-16T01:05:14.978Z,128.50
2018-02-16T01:06:19.179Z,138.48
2018-02-16T01:07:23.381Z,141.30
2018-02-16T01:08:27.578Z,128.90
2018-02-16T01:09:32.643Z,134.02
2018-02-16T01:10:38.160Z,130.35
2018-02-16T01:11:42.673Z,117.15
2018-02-16T01:12:46.954Z,121.30
2018-02-16T01:13:51.153Z,114.87
2018-02-16T01:14:55.359Z,126.85
2018-02-16T01:15:59.568Z,124.75
2018-02-16T01:17:03.973Z,135.48
2018-02-16T01:18:08.770Z,125.15
2018-02-16T01:19:13.134Z,119.50
2018-02-16T01:20:18.239Z,133.82
2018-02-16T01:21:22.446Z,118.13
2018-02-16T01:22:26.637Z,119.10
2018-02-16T01:23:30.839Z,104.50
2018-02-16T01:24:35.692Z,144.15
2018-02-16T01:25:40.355Z,107.27
2018-02-16T01:26:45.485Z,116.50
2018-02-16T01:27:49.695Z,122.00
2018-02-16T01:28:53.891Z,123.60
2018-02-16T01:29:58.143Z,118.93
2018-02-16T01:31:04.011Z,121.60
2018-02-16T01:32:09.444Z,148.17
2018-02-16T01:33:13.729Z,110.25
2018-02-16T01:34:18.727Z,127.93
2018-02-16T01:35:22.954Z,127.12
2018-02-16T01:36:27.167Z,118.15
2018-02-16T01:37:31.364Z,128.47
2018-02-16T01:38:35.934Z,124.82
2018-02-16T01:39:40.572Z,113.15
2018-02-16T01:40:44.902Z,115.82
2018-02-16T01:41:49.143Z,105.80
2018-02-16T01:42:53.328Z,84.17
2018-02-16T01:43:57.522Z,90.47
2018-02-16T01:45:02.030Z,94.30
2018-02-16T01:46:07.010Z,105.32
2018-02-16T01:47:11.783Z,92.12
2018-02-16T01:48:15.992Z,97.75
2018-02-16T01:49:20.181Z,86.68
2018-02-16T01:50:25.149Z,90.45
2018-02-16T01:51:29.353Z,114.12
2018-02-16T01:52:33.786Z,96.00
2018-02-16T01:53:39.094Z,97.80
2018-02-16T01:54:43.336Z,112.40
2018-02-16T01:55:47.553Z,118.13
2018-02-16T01:56:51.732Z,83.65
2018-02-16T01:57:55.936Z,86.03
2018-02-16T01:59:00.134Z,83.33
2018-02-16T02:00:05.885Z,77.68
2018-02-16T02:01:10.180Z,81.73
2018-02-16T02:02:15.257Z,85.38
2018-02-16T02:03:19.478Z,74.45
2018-02-16T02:04:23.693Z,68.87
2018-02-16T02:05:27.882Z,74.50
2018-02-16T02:06:32.184Z,62.03
2018-02-16T02:07:37.621Z,74.40
2018-02-16T02:08:42.029Z,75.70
2018-02-16T02:09:46.299Z,66.62
2018-02-16T02:10:50.495Z,75.00
2018-02-16T02:11:54.681Z,54.58
2018-02-16T02:12:58.890Z,60.90
2018-02-16T02:14:03.286Z,78.55
2018-02-16T02:15:08.432Z,61.40
2018-02-16T02:16:13.213Z,51.17
2018-02-16T02:17:17.459Z,60.30
2018-02-16T02:18:21.687Z,58.33
2018-02-16T02:19:25.885Z,58.72
2018-02-16T02:20:30.071Z,66.37
2018-02-16T02:21:35.056Z,54.57
2018-02-16T02:22:39.643Z,51.90
2018-02-16T02:23:44.118Z,52.90
2018-02-16T02:24:49.132Z,50.58
2018-02-16T02:25:53.351Z,64.82
2018-02-16T02:26:57.558Z,60.38
2018-02-16T02:28:01.822Z,63.37
2018-02-16T02:29:08.381Z,56.70
2018-02-16T02:30:12.930Z,57.27
2018-02-16T02:31:17.564Z,60.33
2018-02-16T02:32:21.748Z,66.37
2018-02-16T02:33:25.947Z,70.12
2018-02-16T02:34:30.137Z,64.65
2018-02-16T02:35:35.567Z,62.65
2018-02-16T02:36:41.108Z,65.72
2018-02-16T02:37:45.928Z,60.20
2018-02-16T02:38:50.135Z,63.10
2018-02-16T02:39:54.312Z,55.90
2018-02-16T02:40:58.558Z,67.25
2018-02-16T02:42:03.152Z,66.32
2018-02-16T02:43:09.363Z,61.60
2018-02-16T02:44:14.240Z,55.30
2018-02-16T02:45:19.532Z,61.83
2018-02-16T02:46:23.750Z,51.58
2018-02-16T02:47:28.008Z,63.30
2018-02-16T02:48:32.787Z,56.05
2018-02-16T02:49:38.280Z,59.55
2018-02-16T02:50:43.389Z,54.30
2018-02-16T02:51:47.771Z,73.65
2018-02-16T02:52:51.974Z,58.33
2018-02-16T02:53:56.170Z,53.78
2018-02-16T02:55:01.116Z,59.20
2018-02-16T02:56:05.856Z,60.80
2018-02-16T02:57:10.341Z,61.45
2018-02-16T02:58:14.584Z,60.10
2018-02-16T02:59:18.801Z,56.08
2018-02-16T03:00:22.988Z,60.75
2018-02-16T03:01:27.185Z,52.03
2018-02-16T03:02:32.224Z,53.40
2018-02-16T03:03:39.338Z,50.60
2018-02-16T03:04:43.760Z,62.28
2018-02-16T03:05:48.759Z,59.70
2018-02-16T03:06:52.949Z,65.30
2018-02-16T03:07:57.935Z,50.03
2018-02-16T03:09:02.345Z,66.72
2018-02-16T03:10:09.363Z,58.70
2018-02-16T03:11:14.123Z,63.95
2018-02-16T03:12:18.508Z,73.23
2018-02-16T03:13:23.486Z,61.25
2018-02-16T03:14:27.677Z,57.62
2018-02-16T03:15:31.885Z,66.57
2018-02-16T03:16:37.810Z,63.67
2018-02-16T03:17:42.530Z,56.08
2018-02-16T03:18:47.489Z,67.68
2018-02-16T03:19:51.660Z,69.60
2018-02-16T03:20:56.636Z,72.40
2018-02-16T03:22:00.876Z,62.50
2018-02-16T03:23:07.221Z,54.95
2018-02-16T03:24:11.567Z,56.95
2018-02-16T03:25:16.570Z,59.95
2018-02-16T03:26:20.765Z,63.72
2018-02-16T03:27:25.021Z,59.40
2018-02-16T03:28:29.979Z,74.68
2018-02-16T03:29:35.157Z,71.25
2018-02-16T03:30:40.602Z,71.07
2018-02-16T03:31:45.717Z,70.72
2018-02-16T03:32:49.969Z,58.07
2018-02-16T03:33:54.921Z,73.95
2018-02-16T03:34:59.091Z,62.90
2018-02-16T03:36:04.101Z,60.27
2018-02-16T03:37:09.419Z,60.85
2018-02-16T03:38:13.828Z,67.47
2018-02-16T03:39:18.072Z,68.73
2018-02-16T03:40:22.262Z,75.37
2018-02-16T03:41:26.463Z,68.70
2018-02-16T03:42:30.643Z,81.65
2018-02-16T03:43:36.915Z,67.93
2018-02-16T03:44:41.408Z,61.30
2018-02-16T03:45:46.015Z,67.43
2018-02-16T03:46:50.209Z,65.07
2018-02-16T03:47:54.391Z,59.33
2018-02-16T03:48:58.644Z,64.62
2018-02-16T03:50:03.936Z,59.30
2018-02-16T03:51:09.131Z,61.95
2018-02-16T03:52:13.994Z,71.43
2018-02-16T03:53:18.213Z,58.05
2018-02-16T03:54:22.423Z,68.15
2018-02-16T03:55:26.623Z,85.95
2018-02-16T03:56:30.844Z,60.50
2018-02-16T03:57:36.476Z,61.03
2018-02-16T03:58:42.601Z,62.90
2018-02-16T03:59:46.936Z,62.72
2018-02-16T04:00:51.150Z,64.45
2018-02-16T04:01:55.379Z,64.78
2018-02-16T04:02:59.594Z,59.53
2018-02-16T04:04:05.106Z,64.72
2018-02-16T04:05:09.658Z,65.47
2018-02-16T04:06:13.999Z,59.88
2018-02-16T04:07:18.252Z,74.15
2018-02-16T04:08:22.465Z,64.12
2018-02-16T04:09:26.643Z,64.25
2018-02-16T04:10:30.838Z,65.15
2018-02-16T04:11:35.968Z,69.15
2018-02-16T04:12:40.549Z,65.50
2018-02-16T04:13:44.949Z,88.43
2018-02-16T04:14:49.184Z,59.53
2018-02-16T04:15:53.434Z,70.53
2018-02-16T04:16:57.652Z,58.00
2018-02-16T04:18:01.895Z,77.70
2018-02-16T04:19:08.582Z,60.75
2018-02-16T04:20:13.909Z,62.90
2018-02-16T04:21:18.298Z,66.37
2018-02-16T04:22:23.277Z,73.07
2018-02-16T04:23:27.485Z,61.93
2018-02-16T04:24:31.732Z,56.92
2018-02-16T04:25:38.920Z,62.35
2018-02-16T04:26:44.116Z,65.50
2018-02-16T04:27:48.314Z,63.67
2018-02-16T04:28:52.511Z,78.22
2018-02-16T04:29:56.725Z,66.87
2018-02-16T04:31:00.917Z,67.50
2018-02-16T04:32:06.004Z,84.90
2018-02-16T04:33:11.131Z,68.30
2018-02-16T04:34:16.338Z,58.42
2018-02-16T04:35:20.538Z,71.05
2018-02-16T04:36:24.744Z,60.17
2018-02-16T04:37:28.971Z,57.40
2018-02-16T04:38:33.411Z,72.20
2018-02-16T04:39:38.442Z,65.32
2018-02-16T04:40:43.823Z,63.67
2018-02-16T04:41:48.040Z,62.95
2018-02-16T04:42:52.238Z,64.78
2018-02-16T04:43:57.205Z,92.40
2018-02-16T04:45:01.502Z,79.87
2018-02-16T04:46:08.080Z,85.80
2018-02-16T04:47:12.852Z,65.50
2018-02-16T04:48:17.854Z,59.78
2018-02-16T04:49:22.056Z,79.97
2018-02-16T04:50:26.242Z,77.87
2018-02-16T04:51:30.452Z,72.32
2018-02-16T04:52:35.837Z,63.17
2018-02-16T04:53:40.736Z,62.47
2018-02-16T04:54:45.277Z,71.45
2018-02-16T04:55:49.491Z,51.80
2018-02-16T04:56:53.690Z,63.53
2018-02-16T04:57:57.920Z,88.22
2018-02-16T04:59:02.287Z,65.80
2018-02-16T05:00:08.005Z,67.00
2018-02-16T05:01:12.475Z,59.28
2018-02-16T05:02:16.894Z,64.90
2018-02-16T05:03:21.100Z,70.18
2018-02-16T05:04:25.279Z,61.60
2018-02-16T05:05:29.491Z,56.28
2018-02-16T05:06:34.656Z,80.35
2018-02-16T05:07:39.274Z,74.20
2018-02-16T05:08:43.576Z,68.53
2018-02-16T05:09:47.836Z,81.77
2018-02-16T05:10:52.028Z,60.75
2018-02-16T05:11:56.254Z,76.10
2018-02-16T05:13:00.454Z,71.12
2018-02-16T05:14:05.307Z,80.10
2018-02-16T05:15:09.878Z,67.28
2018-02-16T05:16:14.181Z,57.53
2018-02-16T05:17:18.375Z,61.58
2018-02-16T05:18:22.593Z,66.70
2018-02-16T05:19:26.815Z,66.43
2018-02-16T05:20:31.039Z,66.25
2018-02-16T05:21:36.239Z,61.25
2018-02-16T05:22:42.670Z,66.43
2018-02-16T05:23:47.681Z,68.78
2018-02-16T05:24:51.929Z,66.22
2018-02-16T05:25:56.877Z,72.03
2018-02-16T05:27:01.067Z,64.55
2018-02-16T05:28:06.051Z,59.28
2018-02-16T05:29:11.177Z,71.75
2018-02-16T05:30:16.046Z,65.53
2018-02-16T05:31:21.010Z,67.35
2018-02-16T05:32:25.226Z,64.93
2018-02-16T05:33:29.445Z,78.22
2018-02-16T05:34:34.611Z,65.22
2018-02-16T05:35:40.326Z,57.40
2018-02-16T05:36:44.599Z,58.35
2018-02-16T05:37:48.809Z,61.70
2018-02-16T05:38:53.751Z,74.25
2018-02-16T05:39:57.934Z,71.37
2018-02-16T05:41:03.102Z,63.92
2018-02-16T05:42:07.663Z,64.78
2018-02-16T05:43:11.933Z,57.75
2018-02-16T05:44:16.278Z,62.28
2018-02-16T05:45:20.455Z,54.88
2018-02-16T05:46:24.654Z,77.22
2018-02-16T05:47:28.855Z,61.33
2018-02-16T05:48:34.595Z,56.57
2018-02-16T05:49:39.301Z,74.50
2018-02-16T05:50:44.802Z,72.68
2018-02-16T05:51:49.038Z,73.20
2018-02-16T05:52:53.239Z,62.23
2018-02-16T05:53:57.460Z,81.70
2018-02-16T05:55:01.676Z,84.30
2018-02-16T05:56:06.779Z,79.37
2018-02-16T05:57:11.981Z,86.80
2018-02-16T05:58:16.333Z,75.43
2018-02-16T05:59:20.506Z,82.80
2018-02-16T06:00:24.688Z,78.07
2018-02-16T06:01:28.888Z,78.30
2018-02-16T06:02:33.276Z,77.55
2018-02-16T06:03:37.954Z,85.65
2018-02-16T06:04:43.327Z,69.97
2018-02-16T06:05:47.549Z,75.40
2018-02-16T06:06:51.727Z,79.22
2018-02-16T06:07:55.925Z,76.05
2018-02-16T06:09:00.130Z,69.03
2018-02-16T06:10:06.713Z,67.05
2018-02-16T06:11:11.667Z,81.85
2018-02-16T06:12:15.923Z,70.37
2018-02-16T06:13:20.883Z,82.90
2018-02-16T06:14:25.130Z,89.18
2018-02-16T06:15:29.332Z,96.10
2018-02-16T06:16:34.216Z,91.45
2018-02-16T06:17:39.931Z,83.60
2018-02-16T06:18:44.342Z,79.82
2018-02-16T06:19:48.589Z,68.70
2018-02-16T06:20:52.781Z,80.28
2018-02-16T06:21:57.803Z,77.13
2018-02-16T06:23:02.211Z,71.62
2018-02-16T06:24:07.104Z,82.03
2018-02-16T06:25:11.941Z,81.35
2018-02-16T06:26:16.392Z,72.03
2018-02-16T06:27:21.414Z,84.87
2018-02-16T06:28:25.612Z,88.62
2018-02-16T06:29:29.783Z,75.47
2018-02-16T06:30:34.299Z,83.07
2018-02-16T06:31:40.304Z,94.47
2018-02-16T06:32:44.708Z,66.57
2018-02-16T06:33:48.918Z,80.68
2018-02-16T06:34:53.128Z,72.57
2018-02-16T06:35:57.335Z,67.60
2018-02-16T06:37:01.606Z,75.47
2018-02-16T06:38:07.664Z,95.97
2018-02-16T06:39:12.059Z,77.75
2018-02-16T06:40:16.387Z,78.75
2018-02-16T06:41:20.581Z,91.93
2018-02-16T06:42:25.555Z,88.62
2018-02-16T06:43:29.864Z,79.37
2018-02-16T06:44:34.479Z,74.78
2018-02-16T06:45:40.117Z,69.07
2018-02-16T06:46:44.474Z,68.95
2018-02-16T06:47:49.497Z,91.63
2018-02-16T06:48:53.694Z,79.75
2018-02-16T06:49:57.895Z,69.68
2018-02-16T06:51:02.184Z,72.05
2018-02-16T06:52:07.042Z,64.18
2018-02-16T06:53:11.421Z,59.35
2018-02-16T06:54:15.802Z,66.78
2018-02-16T06:55:19.998Z,69.37
2018-02-16T06:56:24.244Z,60.47
2018-02-16T06:57:28.423Z,71.82
2018-02-16T06:58:32.883Z,69.28
2018-02-16T06:59:37.711Z,77.10
2018-02-16T07:00:42.941Z,69.20
2018-02-16T07:01:47.142Z,71.90
2018-02-16T07:02:52.096Z,74.10
2018-02-16T07:03:56.351Z,63.10
2018-02-16T07:05:00.544Z,73.80
2018-02-16T07:06:07.229Z,71.22
2018-02-16T07:07:11.844Z,58.17
2018-02-16T07:08:16.120Z,79.85
2018-02-16T07:09:20.303Z,64.68
2018-02-16T07:10:25.250Z,71.20
2018-02-16T07:11:29.475Z,82.12
2018-02-16T07:12:34.796Z,92.22
2018-02-16T07:13:40.043Z,65.00
2018-02-16T07:14:44.318Z,72.03
2018-02-16T07:15:48.542Z,70.18
2018-02-16T07:16:52.742Z,64.07
2018-02-16T07:17:57.717Z,76.62
2018-02-16T07:19:02.200Z,62.78
2018-02-16T07:20:07.540Z,70.82
2018-02-16T07:21:12.096Z,62.78
2018-02-16T07:22:16.338Z,67.30
2018-02-16T07:23:20.555Z,60.38
2018-02-16T07:24:25.700Z,60.75
2018-02-16T07:25:29.898Z,67.37
2018-02-16T07:26:36.314Z,68.62
2018-02-16T07:27:42.006Z,58.80
2018-02-16T07:28:46.266Z,57.80
2018-02-16T07:29:50.475Z,70.72
2018-02-16T07:30:54.730Z,71.18
2018-02-16T07:31:59.703Z,60.85
2018-02-16T07:33:05.335Z,63.30
2018-02-16T07:34:10.157Z,55.95
2018-02-16T07:35:15.599Z,60.38
2018-02-16T07:36:19.834Z,67.40
2018-02-16T07:37:24.038Z,57.47
2018-02-16T07:38:28.242Z,54.97
2018-02-16T07:39:32.935Z,63.28
2018-02-16T07:40:38.734Z,59.25
2018-02-16T07:41:43.508Z,77.35
2018-02-16T07:42:47.766Z,58.43
2018-02-16T07:43:51.968Z,62.03
2018-02-16T07:44:56.189Z,63.45
2018-02-16T07:46:00.425Z,64.55
2018-02-16T07:47:05.533Z,69.20
2018-02-16T07:48:10.144Z,60.70
2018-02-16T07:49:14.488Z,59.50
2018-02-16T07:50:19.494Z,59.03
2018-02-16T07:51:23.702Z,55.80
2018-02-16T07:52:27.948Z,56.58
2018-02-16T07:53:32.206Z,60.38
2018-02-16T07:54:39.027Z,51.28
2018-02-16T07:55:43.435Z,59.35
2018-02-16T07:56:47.656Z,51.67
2018-02-16T07:57:51.887Z,51.08
2018-02-16T07:58:56.846Z,48.55
2018-02-16T08:00:01.076Z,54.57
2018-02-16T08:01:07.163Z,54.67
2018-02-16T08:02:11.684Z,64.25
2018-02-16T08:03:15.956Z,51.95
2018-02-16T08:04:20.185Z,56.08
2018-02-16T08:05:24.391Z,55.92
2018-02-16T08:06:28.631Z,56.13
2018-02-16T08:07:34.437Z,43.30
2018-02-16T08:08:41.054Z,54.63
2018-02-16T08:09:45.561Z,45.03
2018-02-16T08:10:49.742Z,49.70
2018-02-16T08:11:54.005Z,39.58
2018-02-16T08:12:59.121Z,44.88
2018-02-16T08:14:04.286Z,45.50
2018-02-16T08:15:08.983Z,43.92
2018-02-16T08:16:13.528Z,49.10
2018-02-16T08:17:18.638Z,47.90
2018-02-16T08:18:22.870Z,54.25
2018-02-16T08:19:27.071Z,40.15
2018-02-16T08:20:31.354Z,45.40
2018-02-16T08:21:37.760Z,40.30
2018-02-16T08:22:42.996Z,48.08
2018-02-16T08:23:48.047Z,35.90
2018-02-16T08:24:52.333Z,49.05
2018-02-16T08:25:56.576Z,36.20
2018-02-16T08:27:00.778Z,38.33
2018-02-16T08:28:08.140Z,41.22
2018-02-16T08:29:12.860Z,49.35
2018-02-16T08:30:17.441Z,35.92
2018-02-16T08:31:21.654Z,39.20
2018-02-16T08:32:25.859Z,39.97
2018-02-16T08:33:30.119Z,46.55
2018-02-16T08:34:35.757Z,48.83
2018-02-16T08:35:41.109Z,41.95
2018-02-16T08:36:45.675Z,51.88
2018-02-16T08:37:49.850Z,41.20
2018-02-16T08:38:54.051Z,41.63
2018-02-16T08:39:58.252Z,39.92
2018-02-16T08:41:03.820Z,47.42
2018-02-16T08:42:08.479Z,37.67
2018-02-16T08:43:13.783Z,42.10
2018-02-16T08:44:18.937Z,41.63
2018-02-16T08:45:23.119Z,65.03
2018-02-16T08:46:27.333Z,51.47
2018-02-16T08:47:31.582Z,41.55
2018-02-16T08:48:38.587Z,46.85
2018-02-16T08:49:43.889Z,40.07
2018-02-16T08:50:48.877Z,49.38
2018-02-16T08:51:53.051Z,33.97
2018-02-16T08:52:58.023Z,38.22
2018-02-16T08:54:03.174Z,40.17
2018-02-16T08:55:08.261Z,42.05
2018-02-16T08:56:12.806Z,37.67
2018-02-16T08:57:17.322Z,37.70
2018-02-16T08:58:21.490Z,31.10
2018-02-16T08:59:26.450Z,35.90
2018-02-16T09:00:30.691Z,47.85
2018-02-16T09:01:37.875Z,37.27
2018-02-16T09:02:43.226Z,38.03
2018-02-16T09:03:48.496Z,39.03
2018-02-16T09:04:52.714Z,53.03
2018-02-16T09:05:56.966Z,32.93
2018-02-16T09:07:01.824Z,37.92
2018-02-16T09:08:07.564Z,37.38
2018-02-16T09:09:11.906Z,33.60
2018-02-16T09:10:16.210Z,34.03
2018-02-16T09:11:20.411Z,40.70
2018-02-16T09:12:25.431Z,46.13
2018-02-16T09:13:30.419Z,29.60
2018-02-16T09:14:35.022Z,40.33
2018-02-16T09:15:40.223Z,35.40
2018-02-16T09:16:44.598Z,28.90
2018-02-16T09:17:48.818Z,40.67
2018-02-16T09:18:53.028Z,35.60
2018-02-16T09:19:57.202Z,35.70
2018-02-16T09:21:01.375Z,26.85
2018-02-16T09:22:07.673Z,36.20
2018-02-16T09:23:12.565Z,36.70
2018-02-16T09:24:17.527Z,39.27
2018-02-16T09:25:21.731Z,24.25
2018-02-16T09:26:26.055Z,33.20
2018-02-16T09:27:30.247Z,39.80
2018-02-16T09:28:36.509Z,32.40
2018-02-16T09:29:41.214Z,31.85
2018-02-16T09:30:45.710Z,33.17
2018-02-16T09:31:49.955Z,25.73
2018-02-16T09:32:54.139Z,30.55
2018-02-16T09:33:58.333Z,37.23
2018-02-16T09:35:02.755Z,25.03
2018-02-16T09:36:09.693Z,35.88
2018-02-16T09:37:15.463Z,40.93
2018-02-16T09:38:19.654Z,38.07
2018-02-16T09:39:25.093Z,29.57
2018-02-16T09:40:29.686Z,35.37
2018-02-16T09:41:36.422Z,29.37
2018-02-16T09:42:41.444Z,30.10
2018-02-16T09:43:45.902Z,39.90
2018-02-16T09:44:50.108Z,30.03
2018-02-16T09:45:54.325Z,25.73
2018-02-16T09:46:58.564Z,20.55
2018-02-16T09:48:02.971Z,43.00
2018-02-16T09:49:08.086Z,30.15
2018-02-16T09:50:13.189Z,21.57
2018-02-16T09:51:17.426Z,18.63
2018-02-16T09:52:21.764Z,33.47
2018-02-16T09:53:25.961Z,38.60
2018-02-16T09:54:30.206Z,25.90
2018-02-16T09:55:35.595Z,33.40
2018-02-16T09:56:40.816Z,26.57
2018-02-16T09:57:45.632Z,27.47
2018-02-16T09:58:50.607Z,28.87
2018-02-16T09:59:54.787Z,39.37
2018-02-16T10:00:58.975Z,31.17
2018-02-16T10:02:03.289Z,24.87
2018-02-16T10:03:08.255Z,27.33
2018-02-16T10:04:12.870Z,24.63
2018-02-16T10:05:17.167Z,33.40
2018-02-16T10:06:22.099Z,24.20
2018-02-16T10:07:27.035Z,26.73
2018-02-16T10:08:31.288Z,37.73
2018-02-16T10:09:36.721Z,41.40
2018-02-16T10:10:41.807Z,27.23
2018-02-16T10:11:46.143Z,34.60
2018-02-16T10:12:50.382Z,25.20
2018-02-16T10:13:54.608Z,27.70
2018-02-16T10:14:58.812Z,43.00
2018-02-16T10:16:03.598Z,24.90
2018-02-16T10:17:08.188Z,28.90
2018-02-16T10:18:13.754Z,16.73
2018-02-16T10:19:18.030Z,28.53
2018-02-16T10:20:22.196Z,63.70
2018-02-16T10:21:26.366Z,28.90
2018-02-16T10:22:31.314Z,18.47
2018-02-16T10:23:37.188Z,21.83
2018-02-16T10:24:42.600Z,24.63
2018-02-16T10:25:46.853Z,20.73
2018-02-16T10:26:51.095Z,14.93
2018-02-16T10:27:55.401Z,29.03
2018-02-16T10:28:59.576Z,24.63
2018-02-16T10:30:04.611Z,35.30
2018-02-16T10:31:09.194Z,20.43
2018-02-16T10:32:13.595Z,28.23
2018-02-16T10:33:17.837Z,17.73
2018-02-16T10:34:22.027Z,26.33
2018-02-16T10:35:26.196Z,26.53
2018-02-16T10:36:30.410Z,32.30
2018-02-16T10:37:35.328Z,16.13
2018-02-16T10:38:40.310Z,25.60
2018-02-16T10:39:44.944Z,23.30
2018-02-16T10:40:49.180Z,17.53
2018-02-16T10:41:53.376Z,24.00
2018-02-16T10:42:57.593Z,21.17
2018-02-16T10:44:01.787Z,23.40
2018-02-16T10:45:07.843Z,16.00
2018-02-16T10:46:12.163Z,16.93
2018-02-16T10:47:16.485Z,15.87
2018-02-16T10:48:20.722Z,21.90
2018-02-16T10:49:24.902Z,21.50
2018-02-16T10:50:29.080Z,42.13
2018-02-16T10:51:33.719Z,25.30
2018-02-16T10:52:39.206Z,22.70
2018-02-16T10:53:44.967Z,29.57
2018-02-16T10:54:49.219Z,16.63
2018-02-16T10:55:53.407Z,19.30
2018-02-16T10:56:58.335Z,20.63
2018-02-16T10:58:03.779Z,13.80
2018-02-16T10:59:08.545Z,21.00
2018-02-16T11:00:14.306Z,19.90
2018-02-16T11:01:19.726Z,18.43
2018-02-16T11:02:29.505Z,19.17
2018-02-16T11:03:38.522Z,13.90
2018-02-16T11:04:48.303Z,17.23
2018-02-16T11:06:02.221Z,20.60
2018-02-16T11:07:13.363Z,14.13
2018-02-16T11:08:23.076Z,21.47
2018-02-16T11:09:27.534Z,27.97
2018-02-16T11:10:32.926Z,14.80
2018-02-16T11:11:38.421Z,26.03
2018-02-16T11:12:42.710Z,21.53
2018-02-16T11:13:47.711Z,20.93
2018-02-16T11:14:51.884Z,23.10
2018-02-16T11:15:56.858Z,14.93
2018-02-16T11:17:01.036Z,22.63
2018-02-16T11:18:06.187Z,23.67
2018-02-16T11:19:10.773Z,21.23
2018-02-16T11:20:15.857Z,16.77
2018-02-16T11:21:20.137Z,21.33
2018-02-16T11:22:24.323Z,13.80
2018-02-16T11:23:29.263Z,19.23
2018-02-16T11:24:33.971Z,18.73
2018-02-16T11:25:38.408Z,19.13
2018-02-16T11:26:42.764Z,15.23
2018-02-16T11:27:47.097Z,17.00
2018-02-16T11:28:51.316Z,19.57
2018-02-16T11:29:55.508Z,24.30
2018-02-16T11:30:59.700Z,22.43
2018-02-16T11:32:04.494Z,16.63
2018-02-16T11:33:08.944Z,28.07
2018-02-16T11:34:13.479Z,18.30
2018-02-16T11:35:18.481Z,20.77
2018-02-16T11:36:22.695Z,17.70
2018-02-16T11:37:26.887Z,18.33
2018-02-16T11:38:31.106Z,13.63
2018-02-16T11:39:36.096Z,18.43
2018-02-16T11:40:40.921Z,16.97
2018-02-16T11:41:46.622Z,14.63
2018-02-16T11:42:50.859Z,23.60
2018-02-16T11:43:55.029Z,22.30
2018-02-16T11:44:59.368Z,17.23
2018-02-16T11:46:03.957Z,22.33
2018-02-16T11:47:08.844Z,20.07
2018-02-16T11:48:13.400Z,11.63
2018-02-16T11:49:17.654Z,19.47
2018-02-16T11:50:21.837Z,18.60
2018-02-16T11:51:26.042Z,13.50
2018-02-16T11:52:30.230Z,15.87
2018-02-16T11:53:35.294Z,17.50
2018-02-16T11:54:40.129Z,21.60
2018-02-16T11:55:44.482Z,23.50
2018-02-16T11:56:48.769Z,42.83
2018-02-16T11:57:52.959Z,21.50
2018-02-16T11:58:57.158Z,23.60
2018-02-16T12:00:01.376Z,18.27
2018-02-16T12:01:07.288Z,15.30
2018-02-16T12:02:11.567Z,21.63
2018-02-16T12:03:15.853Z,16.83
2018-02-16T12:04:20.041Z,23.57
2018-02-16T12:05:24.239Z,13.73
2018-02-16T12:06:28.403Z,25.57
2018-02-16T12:07:35.540Z,20.10
2018-02-16T12:08:39.939Z,23.50
2018-02-16T12:09:44.415Z,23.33
2018-02-16T12:10:49.152Z,20.27
2018-02-16T12:11:53.404Z,16.03
2018-02-16T12:12:57.593Z,16.43
2018-02-16T12:14:03.536Z,12.80
2018-02-16T12:15:08.207Z,14.50
2018-02-16T12:16:12.629Z,15.60
2018-02-16T12:17:17.014Z,14.10
2018-02-16T12:18:21.192Z,11.60
2018-02-16T12:19:25.363Z,18.60
2018-02-16T12:20:29.543Z,14.70
2018-02-16T12:21:36.270Z,15.13
2018-02-16T12:22:40.961Z,23.53
2018-02-16T12:23:45.504Z,17.20
2018-02-16T12:24:49.698Z,17.73
2018-02-16T12:25:53.911Z,13.73
2018-02-16T12:26:58.114Z,12.73
2018-02-16T12:28:02.868Z,14.93
2018-02-16T12:29:08.937Z,20.90
2018-02-16T12:30:13.219Z,19.23
2018-02-16T12:31:17.453Z,16.10
2018-02-16T12:32:22.411Z,18.07
2018-02-16T12:33:26.658Z,14.27
2018-02-16T12:34:30.899Z,11.97
2018-02-16T12:35:35.343Z,23.70
2018-02-16T12:36:39.581Z,15.30
2018-02-16T12:37:43.945Z,17.30
2018-02-16T12:38:48.959Z,9.53
2018-02-16T12:39:53.176Z,14.03
2018-02-16T12:40:58.317Z,12.53
2018-02-16T12:42:03.366Z,21.77
2018-02-16T12:43:08.239Z,15.43
2018-02-16T12:44:13.298Z,20.50
2018-02-16T12:45:17.648Z,12.43
2018-02-16T12:46:21.882Z,12.43
2018-02-16T12:47:26.047Z,8.57
2018-02-16T12:48:30.984Z,9.70
2018-02-16T12:49:37.578Z,9.63
2018-02-16T12:50:42.448Z,9.83
2018-02-16T12:51:47.545Z,12.23
2018-02-16T12:52:51.725Z,13.97
2018-02-16T12:53:55.907Z,14.17
2018-02-16T12:55:00.843Z,7.53
2018-02-16T12:56:07.522Z,9.67
2018-02-16T12:57:12.152Z,17.97
2018-02-16T12:58:16.703Z,23.40
2018-02-16T12:59:20.886Z,19.03
2018-02-16T13:00:25.071Z,11.80
2018-02-16T13:01:30.018Z,16.03
2018-02-16T13:02:35.928Z,15.90
2018-02-16T13:03:40.778Z,21.43
2018-02-16T13:04:46.312Z,9.47
2018-02-16T13:05:51.249Z,13.73
2018-02-16T13:06:56.217Z,8.10
2018-02-16T13:08:00.415Z,14.47
2018-02-16T13:09:05.658Z,12.57
2018-02-16T13:10:10.601Z,18.93
2018-02-16T13:11:14.910Z,7.10
2018-02-16T13:12:19.165Z,15.30
2018-02-16T13:13:24.108Z,14.23
2018-02-16T13:14:29.045Z,14.17
2018-02-16T13:15:33.543Z,16.07
2018-02-16T13:16:39.037Z,9.23
2018-02-16T13:17:43.534Z,15.07
2018-02-16T13:18:47.777Z,16.13
2018-02-16T13:19:51.968Z,11.40
2018-02-16T13:20:56.154Z,10.40
2018-02-16T13:22:00.327Z,13.10
2018-02-16T13:23:04.904Z,10.87
2018-02-16T13:24:11.057Z,8.00
2018-02-16T13:25:15.728Z,12.23
2018-02-16T13:26:19.919Z,10.07
2018-02-16T13:27:24.118Z,15.97
2018-02-16T13:28:28.307Z,8.73
2018-02-16T13:29:32.626Z,11.20
2018-02-16T13:30:37.429Z,11.97
2018-02-16T13:31:42.156Z,13.50
2018-02-16T13:32:46.479Z,14.60
2018-02-16T13:33:50.676Z,15.07
2018-02-16T13:34:54.991Z,18.33
2018-02-16T13:35:59.163Z,24.73
2018-02-16T13:37:03.775Z,9.83
2018-02-16T13:38:09.668Z,9.70
2018-02-16T13:39:14.121Z,17.13
2018-02-16T13:40:18.662Z,16.13
2018-02-16T13:41:22.891Z,12.53
2018-02-16T13:42:27.092Z,13.70
2018-02-16T13:43:31.264Z,13.03
2018-02-16T13:44:36.976Z,8.40
2018-02-16T13:45:42.207Z,13.23
2018-02-16T13:46:46.474Z,14.03
2018-02-16T13:47:50.666Z,9.73
2018-02-16T13:48:55.623Z,8.83
2018-02-16T13:49:59.841Z,13.07
2018-02-16T13:51:05.276Z,10.90